Time;durP1;ratioP1;P1;durP2;ratioP2;P2;SDS_P1;SDS_P2;PMS_P1;PMS_P2;Temp;Humidity;BMP_temperature;BMP_pressure;BME280_temperature;BME280_humidity;BME280_pressure;Samples;Min_cycle;Max_cycle;Signal;HPM_P1;HPM_P2
2021/07/14 00:02:03;;;;;;;5.22;3.20;;;21.20;99.90;;;;;;4973429;28;20031;-66
2021/07/14 00:04:28;;;;;;;4.72;3.10;;;21.20;99.90;;;;;;4973453;28;20027;-69
2021/07/14 00:06:54;;;;;;;3.60;2.88;;;21.20;99.90;;;;;;5004462;28;20055;-67
2021/07/14 00:09:20;;;;;;;4.78;3.10;;;21.20;99.90;;;;;;4973593;28;20049;-67
2021/07/14 00:11:57;;;;;;;6.45;3.20;;;21.20;99.90;;;;;;4973852;28;20034;-69
2021/07/14 00:22:38;;;;;;;4.38;3.20;;;21.20;99.90;;;;;;4973290;28;20030;-68
2021/07/14 00:25:06;;;;;;;6.40;3.70;;;21.10;99.90;;;;;;4981823;28;20022;-68
2021/07/14 00:27:32;;;;;;;4.72;3.35;;;21.10;99.90;;;;;;4992587;28;20030;-67
2021/07/14 00:29:59;;;;;;;5.03;3.63;;;21.20;99.90;;;;;;4992567;28;20165;-66
2021/07/14 00:32:27;;;;;;;4.50;3.22;;;21.10;99.90;;;;;;4992614;28;20113;-67
2021/07/14 00:34:53;;;;;;;5.05;3.22;;;21.10;99.90;;;;;;4992314;28;20027;-68
2021/07/14 00:37:20;;;;;;;5.90;3.42;;;21.10;99.90;;;;;;4992459;28;20494;-67
2021/07/14 00:39:46;;;;;;;6.95;3.50;;;21.10;99.90;;;;;;4992667;28;20041;-69
2021/07/14 00:42:13;;;;;;;4.78;3.25;;;21.10;99.90;;;;;;4992603;28;20033;-67
2021/07/14 00:44:40;;;;;;;4.90;3.42;;;21.10;99.90;;;;;;4992419;28;20080;-68
2021/07/14 00:47:06;;;;;;;6.20;3.50;;;21.10;99.90;;;;;;5007070;28;20124;-68
2021/07/14 00:49:34;;;;;;;4.38;3.20;;;21.10;99.90;;;;;;4992163;28;20026;-67
2021/07/14 00:52:01;;;;;;;4.97;3.15;;;21.10;99.90;;;;;;4992056;28;20357;-67
2021/07/14 00:54:27;;;;;;;3.95;2.97;;;21.10;99.90;;;;;;4992292;28;20022;-69
2021/07/14 00:56:53;;;;;;;6.18;3.40;;;21.10;99.90;;;;;;5006929;28;20063;-68
2021/07/14 00:59:19;;;;;;;5.05;3.05;;;21.00;99.90;;;;;;5007412;28;20117;-68
2021/07/14 01:01:46;;;;;;;5.65;3.30;;;21.10;99.90;;;;;;4992665;28;20049;-67
2021/07/14 01:04:13;;;;;;;6.10;3.35;;;21.00;99.90;;;;;;4979798;28;20109;-66
2021/07/14 01:06:47;;;;;;;5.95;3.63;;;21.10;99.90;;;;;;4972709;28;20379;-66
2021/07/14 01:09:23;;;;;;;4.90;3.53;;;21.00;99.90;;;;;;4972739;28;20042;-67
2021/07/14 01:11:51;;;;;;;4.43;3.05;;;21.00;99.90;;;;;;4972716;28;20050;-69
2021/07/14 01:14:36;;;;;;;4.40;3.72;;;21.00;99.90;;;;;;4972610;28;20054;-68
2021/07/14 01:17:11;;;;;;;5.47;3.20;;;21.00;99.90;;;;;;4987340;28;20027;-66
2021/07/14 01:20:02;;;;;;;6.93;3.60;;;21.00;99.90;;;;;;4972644;28;20031;-68
2021/07/14 01:22:46;;;;;;;4.47;3.50;;;21.00;99.90;;;;;;4973419;28;20031;-67
2021/07/14 01:25:49;;;;;;;5.35;3.67;;;21.00;99.90;;;;;;4987743;28;20395;-69
2021/07/14 01:28:16;;;;;;;4.68;3.38;;;21.00;99.90;;;;;;4972819;28;20058;-68
2021/07/14 01:30:43;;;;;;;3.80;3.30;;;21.00;99.90;;;;;;4972796;28;20023;-68
2021/07/14 01:33:11;;;;;;;4.95;3.40;;;21.00;99.90;;;;;;4972269;28;20031;-70
2021/07/14 01:35:41;;;;;;;6.00;3.47;;;21.00;99.90;;;;;;4972454;28;20058;-67
2021/07/14 01:38:10;;;;;;;6.70;3.78;;;21.00;99.90;;;;;;4972239;28;20546;-69
2021/07/14 01:40:37;;;;;;;4.93;3.20;;;21.00;99.90;;;;;;4972343;28;20187;-66
2021/07/14 01:43:04;;;;;;;5.03;3.38;;;21.00;99.90;;;;;;4972156;28;20106;-69
2021/07/14 01:45:33;;;;;;;6.20;3.55;;;21.00;99.90;;;;;;4972251;28;20031;-66
2021/07/14 01:48:03;;;;;;;3.67;2.95;;;21.00;99.90;;;;;;4972180;28;20073;-67
2021/07/14 01:50:30;;;;;;;4.50;3.33;;;21.00;99.90;;;;;;5006221;28;20498;-69
2021/07/14 01:52:57;;;;;;;4.25;3.20;;;20.90;99.90;;;;;;4991624;28;20038;-68
2021/07/14 01:55:24;;;;;;;5.65;3.42;;;20.90;99.90;;;;;;4991761;28;20018;-66
2021/07/14 01:57:52;;;;;;;4.35;3.50;;;20.90;99.90;;;;;;4991442;28;20085;-68
2021/07/14 02:00:18;;;;;;;4.07;3.33;;;21.00;99.90;;;;;;4991640;28;20025;-66
2021/07/14 02:03:04;;;;;;;4.05;3.38;;;20.90;99.90;;;;;;5007018;28;20105;-66
2021/07/14 02:05:31;;;;;;;3.75;3.17;;;20.90;99.90;;;;;;4991567;28;20028;-66
2021/07/14 02:07:58;;;;;;;5.75;3.38;;;20.90;99.90;;;;;;4991225;28;20045;-66
2021/07/14 02:10:24;;;;;;;5.18;3.65;;;20.90;99.90;;;;;;4991480;28;20102;-68
2021/07/14 02:12:51;;;;;;;5.32;3.42;;;20.90;99.90;;;;;;4991155;28;20072;-66
2021/07/14 02:15:17;;;;;;;5.05;3.40;;;20.90;99.90;;;;;;4992276;28;20023;-68
2021/07/14 02:17:49;;;;;;;4.13;3.70;;;20.90;99.90;;;;;;4995250;28;20530;-68
2021/07/14 02:20:18;;;;;;;3.88;3.47;;;20.90;99.90;;;;;;4995450;28;20042;-67
2021/07/14 02:22:48;;;;;;;5.47;3.78;;;20.90;99.90;;;;;;4995176;28;20026;-66
2021/07/14 02:25:14;;;;;;;4.50;3.58;;;20.90;99.90;;;;;;4995072;28;20439;-70
2021/07/14 02:27:40;;;;;;;4.78;3.53;;;20.90;99.90;;;;;;4994759;28;20466;-67
2021/07/14 02:30:21;;;;;;;5.50;3.90;;;20.90;99.90;;;;;;4994635;28;20105;-67
2021/07/14 02:32:49;;;;;;;3.60;3.17;;;20.90;99.90;;;;;;4994606;28;20019;-67
2021/07/14 02:35:16;;;;;;;4.82;3.35;;;20.90;99.90;;;;;;4995036;28;20030;-69
2021/07/14 02:38:07;;;;;;;4.15;3.38;;;20.90;99.90;;;;;;4995051;28;20397;-70
2021/07/14 02:41:00;;;;;;;4.47;3.15;;;20.90;99.90;;;;;;4993835;28;20032;-70
2021/07/14 02:43:27;;;;;;;4.07;3.50;;;20.90;99.90;;;;;;5009642;28;20494;-67
2021/07/14 02:45:58;;;;;;;4.53;3.65;;;20.80;99.90;;;;;;4994306;28;20089;-67
2021/07/14 02:48:28;;;;;;;5.88;3.85;;;20.90;99.90;;;;;;5009474;28;20045;-68
2021/07/14 02:50:56;;;;;;;5.18;3.72;;;20.90;99.90;;;;;;5008887;28;20032;-67
2021/07/14 02:53:25;;;;;;;5.43;3.53;;;20.80;99.90;;;;;;4994586;28;20109;-66
2021/07/14 02:56:14;;;;;;;4.72;3.42;;;20.80;99.90;;;;;;4994211;28;20014;-69
2021/07/14 02:58:43;;;;;;;3.83;3.40;;;20.80;99.90;;;;;;4994351;28;20026;-70
2021/07/14 03:01:14;;;;;;;5.25;3.55;;;20.80;99.90;;;;;;4994174;28;20030;-69
2021/07/14 03:03:40;;;;;;;5.28;3.50;;;20.80;99.90;;;;;;4993978;28;20105;-68
2021/07/14 03:06:06;;;;;;;7.72;3.70;;;20.80;99.90;;;;;;4993868;28;20030;-67
2021/07/14 03:08:33;;;;;;;4.47;3.85;;;20.80;99.90;;;;;;4994019;28;20471;-67
2021/07/14 03:11:00;;;;;;;5.07;3.40;;;20.80;99.90;;;;;;5008931;28;20077;-66
2021/07/14 03:13:29;;;;;;;6.43;3.55;;;20.80;99.90;;;;;;4993914;28;20418;-68
2021/07/14 03:15:55;;;;;;;4.30;3.63;;;20.80;99.90;;;;;;4993687;28;20121;-67
2021/07/14 03:18:23;;;;;;;5.22;3.72;;;20.80;99.90;;;;;;4993821;28;20430;-67
2021/07/14 03:20:52;;;;;;;4.00;3.53;;;20.80;99.90;;;;;;4993637;28;20026;-68
2021/07/14 03:23:18;;;;;;;6.38;3.72;;;20.80;99.90;;;;;;4993796;28;20084;-67
2021/07/14 03:25:49;;;;;;;5.50;3.90;;;20.80;99.90;;;;;;4994072;28;20176;-67
2021/07/14 03:28:14;;;;;;;4.85;3.72;;;20.80;99.90;;;;;;4992952;28;20038;-69
2021/07/14 03:30:40;;;;;;;5.50;3.65;;;20.80;99.90;;;;;;4993754;28;20030;-68
2021/07/14 03:33:06;;;;;;;5.00;3.72;;;20.80;99.90;;;;;;4993935;28;20034;-67
2021/07/14 03:35:32;;;;;;;5.65;3.88;;;20.80;99.90;;;;;;4976718;28;20027;-67
2021/07/14 03:38:02;;;;;;;4.97;3.58;;;20.70;99.90;;;;;;4973953;28;20022;-66
2021/07/14 03:40:30;;;;;;;5.00;3.42;;;20.80;99.90;;;;;;4974182;28;20033;-67
2021/07/14 03:42:57;;;;;;;4.70;4.05;;;20.80;99.90;;;;;;4973641;28;20125;-67
2021/07/14 03:45:26;;;;;;;5.22;3.83;;;20.80;99.90;;;;;;4973878;28;20026;-65
2021/07/14 03:47:53;;;;;;;4.32;3.65;;;20.80;99.90;;;;;;4993168;28;20042;-69
2021/07/14 03:50:20;;;;;;;4.97;4.25;;;20.80;99.90;;;;;;4993371;28;20026;-71
2021/07/14 03:52:47;;;;;;;5.60;3.67;;;20.70;99.90;;;;;;4993263;28;20109;-65
2021/07/14 03:55:15;;;;;;;5.75;4.05;;;20.70;99.90;;;;;;4993555;28;20050;-67
2021/07/14 03:57:41;;;;;;;5.68;3.83;;;20.70;99.90;;;;;;4993005;28;20022;-69
2021/07/14 04:00:08;;;;;;;4.57;3.90;;;20.70;99.90;;;;;;4992813;28;20026;-67
2021/07/14 04:02:36;;;;;;;4.25;3.65;;;20.70;99.90;;;;;;4992951;28;20483;-66
2021/07/14 04:05:03;;;;;;;5.47;3.85;;;20.70;99.90;;;;;;4990773;28;20105;-67
2021/07/14 04:07:30;;;;;;;5.07;3.72;;;20.70;99.90;;;;;;4992611;28;20035;-66
2021/07/14 04:09:57;;;;;;;4.70;3.88;;;20.70;99.90;;;;;;4992716;28;20030;-66
2021/07/14 04:12:23;;;;;;;5.07;3.80;;;20.70;99.90;;;;;;4992729;28;20027;-68
2021/07/14 04:14:48;;;;;;;5.82;3.85;;;20.70;99.90;;;;;;5007767;28;20434;-67
2021/07/14 04:17:14;;;;;;;4.30;3.63;;;20.70;99.90;;;;;;4993327;28;20023;-67
2021/07/14 04:19:40;;;;;;;5.00;3.60;;;20.70;99.90;;;;;;4992702;28;20022;-68
2021/07/14 04:22:10;;;;;;;4.57;3.80;;;20.70;99.90;;;;;;4992540;28;20403;-69
2021/07/14 04:24:37;;;;;;;5.75;3.88;;;20.70;99.90;;;;;;4992689;28;20518;-69
2021/07/14 04:27:03;;;;;;;5.22;3.88;;;20.70;99.90;;;;;;4991184;28;20027;-68
2021/07/14 04:29:29;;;;;;;5.85;3.67;;;20.70;99.90;;;;;;4992718;28;20026;-69
2021/07/14 04:31:55;;;;;;;5.57;3.90;;;20.70;99.90;;;;;;4992425;28;20030;-66
2021/07/14 04:34:21;;;;;;;5.20;4.15;;;20.70;99.90;;;;;;4975379;28;20041;-67
2021/07/14 04:36:46;;;;;;;5.28;3.78;;;20.70;99.90;;;;;;4972847;28;20018;-67
2021/07/14 04:39:12;;;;;;;5.85;3.85;;;20.70;99.90;;;;;;5004280;28;20031;-68
2021/07/14 04:41:39;;;;;;;5.07;3.83;;;20.70;99.90;;;;;;4973035;28;20034;-68
2021/07/14 04:44:07;;;;;;;5.22;3.92;;;20.70;99.90;;;;;;4972908;28;20037;-67
2021/07/14 04:46:33;;;;;;;5.95;3.78;;;20.70;99.90;;;;;;4973064;28;20041;-69
2021/07/14 04:49:00;;;;;;;4.65;3.92;;;20.70;99.90;;;;;;4972651;28;20044;-66
2021/07/14 04:51:26;;;;;;;6.43;4.00;;;20.70;99.90;;;;;;4972946;28;20055;-67
2021/07/14 04:53:52;;;;;;;4.72;3.60;;;20.70;99.90;;;;;;4972606;28;20556;-68
2021/07/14 04:56:18;;;;;;;5.25;3.80;;;20.70;99.90;;;;;;4972722;28;20030;-68
2021/07/14 04:58:45;;;;;;;4.95;3.80;;;20.70;99.90;;;;;;4973070;28;20098;-66
2021/07/14 05:01:15;;;;;;;5.22;3.35;;;20.70;99.90;;;;;;4973582;28;20027;-67
2021/07/14 05:03:46;;;;;;;4.90;3.83;;;20.70;99.90;;;;;;4987946;28;20031;-67
2021/07/14 05:06:12;;;;;;;5.57;3.60;;;20.70;99.90;;;;;;4973154;28;20102;-67
2021/07/14 05:08:38;;;;;;;5.10;4.00;;;20.70;99.90;;;;;;4972752;28;20041;-66
2021/07/14 05:11:04;;;;;;;5.63;3.78;;;20.70;99.90;;;;;;4972674;28;20027;-66
2021/07/14 05:13:30;;;;;;;4.10;3.03;;;20.70;99.90;;;;;;4972712;28;20157;-66
2021/07/14 05:15:56;;;;;;;5.90;3.85;;;20.70;99.90;;;;;;4991727;28;20054;-65
2021/07/14 05:18:21;;;;;;;4.95;3.42;;;20.70;99.90;;;;;;4992098;28;20036;-67
2021/07/14 05:20:47;;;;;;;5.47;3.70;;;20.70;99.90;;;;;;4991878;28;20050;-67
2021/07/14 05:23:13;;;;;;;5.63;3.30;;;20.70;99.90;;;;;;4992215;28;20038;-67
2021/07/14 05:25:38;;;;;;;3.80;3.42;;;20.70;99.90;;;;;;4992128;28;20029;-66
2021/07/14 05:28:04;;;;;;;5.70;3.72;;;20.70;99.90;;;;;;5006731;28;20042;-69
2021/07/14 05:30:30;;;;;;;4.50;3.75;;;20.70;99.90;;;;;;4991914;28;20034;-67
2021/07/14 05:32:56;;;;;;;6.28;3.92;;;20.70;99.90;;;;;;4985987;28;20034;-66
2021/07/14 05:35:22;;;;;;;4.78;3.97;;;20.70;99.90;;;;;;4972644;28;20427;-66
2021/07/14 05:37:48;;;;;;;5.10;3.65;;;20.70;99.90;;;;;;4972346;28;20027;-66
2021/07/14 05:40:13;;;;;;;4.78;3.53;;;20.70;99.90;;;;;;4972766;28;20038;-67
2021/07/14 05:42:39;;;;;;;5.15;3.30;;;20.70;99.90;;;;;;4972390;28;20031;-67
2021/07/14 05:45:06;;;;;;;3.83;3.38;;;20.70;99.90;;;;;;4972318;28;20034;-68
2021/07/14 05:47:31;;;;;;;6.50;3.80;;;20.70;99.90;;;;;;4972265;28;20031;-68
2021/07/14 05:49:58;;;;;;;4.40;3.60;;;20.70;99.90;;;;;;4972399;28;20038;-70
2021/07/14 05:52:24;;;;;;;4.20;3.30;;;20.70;99.90;;;;;;4976144;28;20030;-66
2021/07/14 05:54:49;;;;;;;5.93;3.45;;;20.70;99.90;;;;;;4976705;28;20117;-66
2021/07/14 05:57:15;;;;;;;5.75;3.30;;;20.70;99.90;;;;;;4976310;28;20031;-67
2021/07/14 05:59:41;;;;;;;6.18;3.75;;;20.70;99.90;;;;;;4977321;28;20034;-69
2021/07/14 06:02:07;;;;;;;19.17;3.88;;;20.70;99.90;;;;;;4976634;28;20037;-66
2021/07/14 06:04:33;;;;;;;5.50;3.10;;;20.70;99.90;;;;;;4981717;28;20058;-66
2021/07/14 06:06:59;;;;;;;6.88;3.08;;;20.80;99.90;;;;;;5005512;28;20072;-66
2021/07/14 06:09:25;;;;;;;3.80;3.40;;;20.80;99.90;;;;;;4995374;28;20427;-66
2021/07/14 06:11:51;;;;;;;6.90;3.65;;;20.80;99.90;;;;;;4995168;28;20109;-66
2021/07/14 06:14:17;;;;;;;4.45;3.35;;;20.80;99.90;;;;;;4995164;28;20122;-67
2021/07/14 06:16:43;;;;;;;3.80;3.33;;;20.80;99.90;;;;;;4994370;28;20475;-66
2021/07/14 06:19:09;;;;;;;6.20;3.58;;;20.80;99.90;;;;;;4992153;28;20037;-66
2021/07/14 06:21:34;;;;;;;5.10;3.28;;;20.80;99.90;;;;;;4976483;28;20479;-67
2021/07/14 06:24:00;;;;;;;6.82;2.92;;;20.80;99.90;;;;;;4976214;28;20030;-67
2021/07/14 06:26:25;;;;;;;5.68;3.58;;;20.80;99.90;;;;;;4992288;28;20034;-67
2021/07/14 06:28:51;;;;;;;5.78;3.80;;;20.80;99.90;;;;;;4988298;28;20065;-66
2021/07/14 06:31:17;;;;;;;6.78;3.50;;;20.80;99.90;;;;;;4994805;28;20022;-66
2021/07/14 06:33:42;;;;;;;9.23;3.50;;;20.80;99.90;;;;;;4995129;28;20022;-67
2021/07/14 06:36:08;;;;;;;6.72;3.72;;;20.80;99.90;;;;;;4994553;28;20200;-66
2021/07/14 06:38:35;;;;;;;4.15;3.30;;;20.80;99.90;;;;;;4994834;28;20493;-67
2021/07/14 06:41:01;;;;;;;4.10;3.17;;;20.80;99.90;;;;;;4993200;28;20034;-65
2021/07/14 06:43:41;;;;;;;5.68;3.70;;;20.80;99.90;;;;;;4994772;28;20063;-69
2021/07/14 06:46:08;;;;;;;4.88;3.55;;;20.80;99.90;;;;;;4994235;28;20032;-69
2021/07/14 06:48:34;;;;;;;5.97;3.53;;;20.80;99.90;;;;;;4994545;28;20168;-67
2021/07/14 06:50:59;;;;;;;6.40;3.40;;;20.80;99.90;;;;;;4994235;28;20065;-67
2021/07/14 06:53:25;;;;;;;6.18;3.70;;;20.80;99.90;;;;;;4994485;28;20026;-66
2021/07/14 06:55:52;;;;;;;5.75;3.38;;;20.80;99.90;;;;;;4994203;28;20031;-68
2021/07/14 06:58:18;;;;;;;10.70;4.28;;;20.80;99.90;;;;;;4994386;28;20023;-65
2021/07/14 07:00:44;;;;;;;12.30;4.40;;;20.80;99.90;;;;;;4993033;28;20041;-66
2021/07/14 07:03:10;;;;;;;7.57;3.92;;;20.80;99.90;;;;;;4992373;28;20027;-67
2021/07/14 07:05:35;;;;;;;7.53;4.22;;;20.80;99.90;;;;;;4991837;28;20065;-66
2021/07/14 07:08:01;;;;;;;8.50;4.05;;;20.90;99.90;;;;;;4994445;28;20076;-66
2021/07/14 07:10:27;;;;;;;7.65;3.92;;;20.90;99.90;;;;;;4992909;28;20030;-66
2021/07/14 07:12:53;;;;;;;10.73;4.32;;;20.90;99.90;;;;;;4993479;28;20042;-67
2021/07/14 07:15:19;;;;;;;6.43;3.90;;;20.90;99.90;;;;;;4993562;28;20030;-69
2021/07/14 07:17:46;;;;;;;10.57;4.50;;;20.80;99.90;;;;;;4996940;28;20031;-66
2021/07/14 07:20:14;;;;;;;11.02;4.55;;;20.90;99.90;;;;;;4994227;28;20022;-66
2021/07/14 07:22:41;;;;;;;10.65;4.50;;;20.90;99.90;;;;;;4992869;28;20023;-67
2021/07/14 07:25:07;;;;;;;9.38;4.47;;;20.80;99.90;;;;;;4993035;28;20045;-66
2021/07/14 07:27:35;;;;;;;8.57;4.25;;;20.80;99.90;;;;;;4993728;28;20019;-66
2021/07/14 07:30:03;;;;;;;11.38;4.60;;;20.80;99.90;;;;;;4992732;28;20053;-66
2021/07/14 07:32:29;;;;;;;9.32;4.22;;;20.90;99.90;;;;;;4992713;28;20071;-67
2021/07/14 07:34:55;;;;;;;7.15;3.92;;;20.90;99.90;;;;;;4992116;28;20474;-66
2021/07/14 07:37:20;;;;;;;7.15;3.80;;;21.00;99.90;;;;;;4991976;28;20166;-67
2021/07/14 07:39:48;;;;;;;9.80;3.97;;;21.00;99.90;;;;;;4990861;28;20474;-66
2021/07/14 07:42:14;;;;;;;7.53;3.90;;;21.10;99.90;;;;;;4993109;28;20023;-68
2021/07/14 07:44:39;;;;;;;8.52;4.03;;;21.10;99.90;;;;;;4993446;28;20026;-66
2021/07/14 07:47:05;;;;;;;7.05;3.75;;;21.10;99.90;;;;;;4992517;28;20034;-70
2021/07/14 07:49:31;;;;;;;9.70;4.18;;;21.00;99.90;;;;;;4993164;28;20038;-69
2021/07/14 07:51:56;;;;;;;10.23;4.38;;;21.00;99.90;;;;;;4992853;28;20030;-69
2021/07/14 07:54:22;;;;;;;11.80;4.18;;;21.00;99.90;;;;;;4993356;28;20371;-69
2021/07/14 07:56:48;;;;;;;7.63;3.67;;;21.00;99.90;;;;;;4992466;28;20360;-72
2021/07/14 07:59:13;;;;;;;7.57;3.58;;;21.00;99.90;;;;;;4993394;28;20050;-66
2021/07/14 08:01:40;;;;;;;8.18;3.72;;;21.10;99.90;;;;;;4993054;28;20085;-68
2021/07/14 08:04:06;;;;;;;6.88;3.58;;;21.10;99.90;;;;;;4992300;28;20070;-64
2021/07/14 08:06:32;;;;;;;7.90;4.10;;;21.00;99.90;;;;;;4992785;28;20072;-64
2021/07/14 08:08:57;;;;;;;7.43;3.88;;;21.00;99.90;;;;;;4991621;28;20070;-67
2021/07/14 08:11:23;;;;;;;7.60;3.97;;;21.00;99.90;;;;;;4992230;28;20030;-68
2021/07/14 08:13:48;;;;;;;7.93;4.10;;;21.00;99.90;;;;;;4991448;28;20032;-67
2021/07/14 08:16:14;;;;;;;8.73;4.03;;;21.00;99.90;;;;;;4992057;28;20026;-68
2021/07/14 08:18:40;;;;;;;9.63;3.83;;;21.00;99.90;;;;;;4992180;28;20057;-68
2021/07/14 08:21:05;;;;;;;9.40;4.20;;;21.00;99.90;;;;;;4991955;28;20045;-67
2021/07/14 08:23:31;;;;;;;7.57;3.78;;;21.00;99.90;;;;;;4991807;28;20037;-67
2021/07/14 08:25:57;;;;;;;6.47;3.72;;;21.00;99.90;;;;;;4990803;28;20033;-67
2021/07/14 08:28:22;;;;;;;8.85;4.13;;;21.00;99.90;;;;;;4992293;28;20047;-67
2021/07/14 08:30:49;;;;;;;10.13;4.07;;;21.00;99.90;;;;;;4992147;28;20026;-67
2021/07/14 08:33:15;;;;;;;6.85;3.55;;;21.00;99.90;;;;;;5001184;28;20390;-68
2021/07/14 08:35:41;;;;;;;8.60;3.75;;;21.00;99.90;;;;;;5001012;28;20026;-67
2021/07/14 08:38:08;;;;;;;6.57;3.53;;;21.00;99.90;;;;;;4992324;28;20022;-66
2021/07/14 08:40:35;;;;;;;7.20;3.60;;;21.00;99.90;;;;;;4992568;28;20092;-66
2021/07/14 08:43:02;;;;;;;7.47;3.72;;;21.00;99.90;;;;;;4992253;28;20053;-66
2021/07/14 08:45:28;;;;;;;6.55;3.63;;;20.90;99.90;;;;;;4992270;28;20045;-66
2021/07/14 08:47:54;;;;;;;5.88;3.42;;;21.00;99.90;;;;;;4991438;28;20034;-67
2021/07/14 08:50:21;;;;;;;4.70;3.28;;;20.90;99.90;;;;;;4992093;28;20368;-67
2021/07/14 08:52:48;;;;;;;6.78;3.65;;;21.00;99.90;;;;;;4992135;28;20080;-67
2021/07/14 08:55:17;;;;;;;6.72;3.35;;;20.90;99.90;;;;;;4992346;28;20018;-68
2021/07/14 08:57:44;;;;;;;5.88;3.25;;;20.90;99.90;;;;;;4992612;28;20490;-68
2021/07/14 09:00:14;;;;;;;5.47;3.08;;;20.90;99.90;;;;;;4992008;28;20030;-66
2021/07/14 09:02:41;;;;;;;7.97;3.67;;;20.90;99.90;;;;;;4991450;28;20084;-65
2021/07/14 09:05:07;;;;;;;6.65;3.40;;;20.90;99.90;;;;;;4984364;28;20105;-66
2021/07/14 09:07:38;;;;;;;6.35;3.42;;;20.90;99.90;;;;;;4992097;28;20026;-66
2021/07/14 09:10:08;;;;;;;5.93;3.25;;;20.90;99.90;;;;;;4991960;28;20065;-66
2021/07/14 09:12:40;;;;;;;6.18;3.55;;;20.90;99.90;;;;;;4992001;28;20027;-66
2021/07/14 09:15:08;;;;;;;6.53;3.60;;;20.90;99.90;;;;;;4991932;28;20641;-66
2021/07/14 09:17:34;;;;;;;5.50;3.63;;;20.90;99.90;;;;;;4992064;28;20069;-66
2021/07/14 09:20:17;;;;;;;5.20;3.17;;;20.90;99.90;;;;;;4991849;28;20444;-67
2021/07/14 09:22:43;;;;;;;5.95;3.47;;;21.00;99.90;;;;;;4992353;28;20033;-66
2021/07/14 09:25:17;;;;;;;6.82;3.47;;;20.90;99.90;;;;;;4992576;28;20367;-66
2021/07/14 09:27:58;;;;;;;4.25;3.35;;;20.90;99.90;;;;;;4996421;28;20387;-67
2021/07/14 09:30:27;;;;;;;5.45;3.70;;;20.90;99.90;;;;;;4996079;28;20030;-67
2021/07/14 09:32:55;;;;;;;6.70;3.85;;;20.90;99.90;;;;;;4995734;28;20536;-67
2021/07/14 09:35:34;;;;;;;6.00;3.97;;;20.80;99.90;;;;;;4995827;28;20095;-68
2021/07/14 09:38:04;;;;;;;6.60;3.90;;;20.90;99.90;;;;;;4995550;28;20030;-68
2021/07/14 09:40:30;;;;;;;6.50;4.05;;;20.90;99.90;;;;;;4995796;28;20491;-67
2021/07/14 09:43:08;;;;;;;6.30;3.78;;;20.90;99.90;;;;;;4995522;28;20045;-66
2021/07/14 09:45:47;;;;;;;9.07;4.13;;;20.90;99.90;;;;;;4995204;28;20368;-66
2021/07/14 09:48:27;;;;;;;8.98;4.18;;;20.90;99.90;;;;;;4995771;28;20039;-67
2021/07/14 09:50:59;;;;;;;9.15;4.80;;;20.90;99.90;;;;;;4995214;28;20117;-67
2021/07/14 09:53:29;;;;;;;10.15;4.70;;;20.90;99.90;;;;;;4995154;28;20030;-67
2021/07/14 09:56:09;;;;;;;7.60;4.32;;;20.90;99.90;;;;;;4995452;28;20045;-67
2021/07/14 09:58:34;;;;;;;7.18;4.38;;;20.90;99.90;;;;;;4995462;28;20023;-66
2021/07/14 10:01:05;;;;;;;7.07;4.75;;;20.90;99.90;;;;;;4995171;28;20165;-67
2021/07/14 10:03:38;;;;;;;7.22;4.25;;;20.80;99.90;;;;;;4995326;28;20037;-65
2021/07/14 10:06:13;;;;;;;10.30;4.38;;;20.90;99.90;;;;;;4995183;28;20034;-68
2021/07/14 10:08:46;;;;;;;9.98;4.57;;;20.90;99.90;;;;;;4995272;28;20041;-68
2021/07/14 10:11:21;;;;;;;10.60;5.15;;;20.90;99.90;;;;;;4995491;28;20606;-67
2021/07/14 10:14:06;;;;;;;10.45;5.05;;;20.80;99.90;;;;;;4993668;28;20049;-68
2021/07/14 10:16:40;;;;;;;8.60;4.47;;;20.80;99.90;;;;;;4994972;28;20030;-66
2021/07/14 10:19:06;;;;;;;10.13;4.70;;;20.80;99.90;;;;;;4994821;28;20355;-67
2021/07/14 10:21:46;;;;;;;7.63;4.15;;;20.90;99.90;;;;;;4995040;28;20684;-68
2021/07/14 10:24:15;;;;;;;9.50;4.68;;;20.80;99.90;;;;;;4995306;28;20029;-68
2021/07/14 10:26:51;;;;;;;6.40;4.00;;;20.80;99.90;;;;;;4995441;28;20429;-67
2021/07/14 10:29:19;;;;;;;8.18;4.55;;;20.80;99.90;;;;;;4994830;28;20555;-66
2021/07/14 10:31:50;;;;;;;9.75;4.38;;;20.80;99.90;;;;;;4995094;28;20479;-67
2021/07/14 10:34:17;;;;;;;9.65;4.45;;;20.80;99.90;;;;;;4994845;28;20031;-64
2021/07/14 10:36:44;;;;;;;8.32;4.32;;;20.90;99.90;;;;;;4994568;28;20049;-64
2021/07/14 10:39:13;;;;;;;9.57;4.60;;;20.90;99.90;;;;;;4993893;28;20375;-67
2021/07/14 10:41:40;;;;;;;8.77;4.78;;;20.80;99.90;;;;;;4993849;28;20390;-65
2021/07/14 10:44:06;;;;;;;9.23;4.60;;;20.90;99.90;;;;;;4992946;28;21163;-66
2021/07/14 10:46:33;;;;;;;8.50;4.68;;;20.80;99.90;;;;;;4993294;28;20029;-69
2021/07/14 10:49:00;;;;;;;7.63;4.55;;;20.80;99.90;;;;;;4993569;28;20486;-68
2021/07/14 10:51:30;;;;;;;7.88;4.60;;;20.80;99.90;;;;;;4993858;28;20030;-73
2021/07/14 10:53:59;;;;;;;7.57;4.00;;;20.80;99.90;;;;;;4994174;28;20430;-71
2021/07/14 10:56:28;;;;;;;6.65;3.88;;;20.80;99.90;;;;;;4993843;28;20022;-66
2021/07/14 10:58:54;;;;;;;9.35;4.15;;;20.90;99.90;;;;;;4993494;28;20030;-67
2021/07/14 11:01:45;;;;;;;8.60;3.95;;;20.80;99.90;;;;;;4994242;28;20105;-69
2021/07/14 11:04:34;;;;;;;6.25;3.83;;;20.90;99.90;;;;;;4994374;28;20097;-66
2021/07/14 11:07:03;;;;;;;8.23;4.10;;;20.80;99.90;;;;;;4993881;28;20460;-67
2021/07/14 11:09:38;;;;;;;6.55;3.60;;;20.90;99.90;;;;;;4994043;28;20038;-65
2021/07/14 11:12:13;;;;;;;8.13;3.65;;;20.90;99.90;;;;;;4993765;28;20022;-66
2021/07/14 11:14:39;;;;;;;10.70;3.72;;;20.90;99.90;;;;;;4994059;28;20523;-69
2021/07/14 11:17:07;;;;;;;8.07;3.53;;;20.90;99.90;;;;;;4993754;28;20026;-67
2021/07/14 11:19:53;;;;;;;7.65;3.70;;;20.90;99.90;;;;;;4992049;28;20459;-68
2021/07/14 11:22:40;;;;;;;11.70;4.07;;;20.80;99.90;;;;;;4993138;28;20110;-65
2021/07/14 11:25:21;;;;;;;8.88;3.83;;;20.90;99.90;;;;;;4991828;28;20515;-67
2021/07/14 11:27:54;;;;;;;6.63;3.30;;;20.80;99.90;;;;;;4993485;28;20375;-68
2021/07/14 11:30:22;;;;;;;5.57;3.33;;;20.80;99.90;;;;;;4993235;28;20084;-66
2021/07/14 11:32:47;;;;;;;5.72;3.42;;;20.80;99.90;;;;;;4989670;28;20090;-65
2021/07/14 11:35:44;;;;;;;7.55;3.80;;;20.80;99.90;;;;;;4992814;28;20030;-65
2021/07/14 11:38:15;;;;;;;6.00;3.45;;;20.70;99.90;;;;;;4992898;28;20125;-68
2021/07/14 11:40:45;;;;;;;7.88;4.05;;;20.70;99.90;;;;;;4993673;28;20037;-64
2021/07/14 11:43:11;;;;;;;7.05;4.03;;;20.70;99.90;;;;;;4993857;28;20026;-64
2021/07/14 11:45:52;;;;;;;12.35;4.28;;;20.70;99.90;;;;;;4993610;28;20368;-69
2021/07/14 11:48:26;;;;;;;8.95;4.47;;;20.70;99.90;;;;;;4992523;28;20122;-68
2021/07/14 11:50:56;;;;;;;7.20;4.05;;;20.70;99.90;;;;;;4993167;28;20030;-68
2021/07/14 11:53:39;;;;;;;9.77;5.15;;;20.70;99.90;;;;;;4993499;28;20033;-65
2021/07/14 11:56:21;;;;;;;8.10;4.40;;;20.70;99.90;;;;;;4993141;28;20038;-65
2021/07/14 11:58:59;;;;;;;7.68;4.60;;;20.70;99.90;;;;;;4992890;28;20034;-64
2021/07/14 12:01:25;;;;;;;11.48;4.88;;;20.70;99.90;;;;;;4992855;28;20030;-65
2021/07/14 12:06:45;;;;;;;7.88;4.95;;;20.70;99.90;;;;;;4993261;28;20069;-65
2021/07/14 12:09:13;;;;;;;11.68;5.03;;;20.70;99.90;;;;;;4991339;28;20073;-65
2021/07/14 12:11:40;;;;;;;9.80;5.00;;;20.70;99.90;;;;;;4992987;28;20108;-65
2021/07/14 12:14:05;;;;;;;9.05;4.70;;;20.70;99.90;;;;;;4992674;28;20373;-68
2021/07/14 12:16:31;;;;;;;7.28;4.60;;;20.70;99.90;;;;;;4992683;28;20084;-65
2021/07/14 12:18:58;;;;;;;5.72;4.13;;;20.70;99.90;;;;;;5001519;28;20429;-67
2021/07/14 12:21:41;;;;;;;8.40;4.32;;;20.70;99.90;;;;;;4993584;28;20054;-74
2021/07/14 12:24:25;;;;;;;7.57;4.57;;;20.70;99.90;;;;;;4992348;28;20474;-72
2021/07/14 12:27:00;;;;;;;7.93;4.22;;;20.70;99.90;;;;;;4991699;28;20057;-71
2021/07/14 12:29:25;;;;;;;10.10;4.32;;;20.80;99.90;;;;;;4991354;28;20125;-79
2021/07/14 12:31:51;;;;;;;9.18;4.25;;;20.80;99.90;;;;;;4991077;28;20114;-68
2021/07/14 12:34:30;;;;;;;9.65;4.60;;;20.90;99.90;;;;;;4991355;28;20029;-71
2021/07/14 12:36:57;;;;;;;9.52;4.70;;;20.80;99.90;;;;;;4989776;28;20018;-69
2021/07/14 12:39:29;;;;;;;9.50;4.20;;;20.80;99.90;;;;;;4991049;28;20509;-70
2021/07/14 12:41:57;;;;;;;8.05;4.50;;;20.80;99.90;;;;;;4990987;28;20092;-71
2021/07/14 12:44:24;;;;;;;6.75;4.25;;;20.90;99.90;;;;;;4991234;28;20382;-70
2021/07/14 12:46:51;;;;;;;8.45;4.30;;;20.90;99.90;;;;;;4992059;28;20475;-70
2021/07/14 12:49:20;;;;;;;7.88;4.40;;;20.80;99.90;;;;;;4992250;28;20046;-71
2021/07/14 12:52:09;;;;;;;11.07;4.38;;;20.80;99.90;;;;;;4992577;28;20105;-70
2021/07/14 12:54:36;;;;;;;6.45;4.07;;;20.80;99.90;;;;;;4992294;28;20169;-70
2021/07/14 12:57:25;;;;;;;8.68;4.15;;;20.80;99.90;;;;;;4992327;28;20033;-70
2021/07/14 13:00:04;;;;;;;7.63;3.80;;;20.80;99.90;;;;;;4990616;28;20026;-70
2021/07/14 13:02:41;;;;;;;8.93;4.68;;;20.80;99.90;;;;;;4990912;28;20356;-70
2021/07/14 13:05:12;;;;;;;7.40;3.83;;;20.80;99.90;;;;;;4991989;28;20027;-70
2021/07/14 13:07:38;;;;;;;6.15;3.70;;;20.80;99.90;;;;;;4992089;28;20027;-70